sensor_id;sensor_type;location;lat;lon;timestamp;temperature;humidity
8633;DHT22;4354;49.832;10.746;2024-02-04T00:02:00;8.00;1.00
8633;DHT22;4354;49.832;10.746;2024-02-04T00:04:26;8.00;1.00
8633;DHT22;4354;49.832;10.746;2024-02-04T00:06:54;8.00;1.90
8633;DHT22;4354;49.832;10.746;2024-02-04T00:09:21;8.00;1.00
8633;DHT22;4354;49.832;10.746;2024-02-04T00:11:49;8.00;1.00
8633;DHT22;4354;49.832;10.746;2024-02-04T00:14:16;8.10;1.00
8633;DHT22;4354;49.832;10.746;2024-02-04T00:16:43;8.00;1.00
8633;DHT22;4354;49.832;10.746;2024-02-04T00:19:09;8.00;1.00
8633;DHT22;4354;49.832;10.746;2024-02-04T00:21:36;8.00;1.00
8633;DHT22;4354;49.832;10.746;2024-02-04T00:24:03;8.00;1.00
8633;DHT22;4354;49.832;10.746;2024-02-04T00:26:30;8.00;1.00
8633;DHT22;4354;49.832;10.746;2024-02-04T00:28:57;8.00;1.00
8633;DHT22;4354;49.832;10.746;2024-02-04T00:31:24;8.00;1.00
8633;DHT22;4354;49.832;10.746;2024-02-04T00:33:50;8.00;1.00
8633;DHT22;4354;49.832;10.746;2024-02-04T00:36:17;8.00;1.00
8633;DHT22;4354;49.832;10.746;2024-02-04T00:38:45;8.00;1.00
8633;DHT22;4354;49.832;10.746;2024-02-04T00:41:12;8.10;1.00
8633;DHT22;4354;49.832;10.746;2024-02-04T00:43:39;8.10;1.00
8633;DHT22;4354;49.832;10.746;2024-02-04T00:46:06;8.10;1.00
8633;DHT22;4354;49.832;10.746;2024-02-04T00:48:33;8.10;1.00
8633;DHT22;4354;49.832;10.746;2024-02-04T00:51:00;8.10;1.00
8633;DHT22;4354;49.832;10.746;2024-02-04T00:53:27;8.10;1.00
8633;DHT22;4354;49.832;10.746;2024-02-04T00:56:03;8.10;1.00
8633;DHT22;4354;49.832;10.746;2024-02-04T00:58:31;8.10;1.00
8633;DHT22;4354;49.832;10.746;2024-02-04T01:00:57;8.10;1.00
8633;DHT22;4354;49.832;10.746;2024-02-04T01:03:24;8.10;1.00
8633;DHT22;4354;49.832;10.746;2024-02-04T01:05:51;8.10;1.00
8633;DHT22;4354;49.832;10.746;2024-02-04T01:08:18;8.10;1.00
8633;DHT22;4354;49.832;10.746;2024-02-04T01:10:45;8.10;1.00
8633;DHT22;4354;49.832;10.746;2024-02-04T01:13:12;8.10;1.00
8633;DHT22;4354;49.832;10.746;2024-02-04T01:15:38;8.10;1.00
8633;DHT22;4354;49.832;10.746;2024-02-04T01:18:05;8.10;1.00
8633;DHT22;4354;49.832;10.746;2024-02-04T01:20:32;8.10;1.00
8633;DHT22;4354;49.832;10.746;2024-02-04T01:22:59;8.10;1.00
8633;DHT22;4354;49.832;10.746;2024-02-04T01:25:26;8.10;1.00
8633;DHT22;4354;49.832;10.746;2024-02-04T01:27:52;8.10;1.00
8633;DHT22;4354;49.832;10.746;2024-02-04T01:30:19;8.10;1.00
8633;DHT22;4354;49.832;10.746;2024-02-04T01:32:46;8.10;1.00
8633;DHT22;4354;49.832;10.746;2024-02-04T01:35:13;8.10;1.00
8633;DHT22;4354;49.832;10.746;2024-02-04T01:37:42;8.10;1.00
8633;DHT22;4354;49.832;10.746;2024-02-04T01:40:10;8.10;1.00
8633;DHT22;4354;49.832;10.746;2024-02-04T01:42:37;8.10;1.00
8633;DHT22;4354;49.832;10.746;2024-02-04T01:45:04;8.00;1.00
8633;DHT22;4354;49.832;10.746;2024-02-04T01:47:32;8.00;1.00
8633;DHT22;4354;49.832;10.746;2024-02-04T01:49:59;8.00;1.00
8633;DHT22;4354;49.832;10.746;2024-02-04T01:52:26;8.00;1.00
8633;DHT22;4354;49.832;10.746;2024-02-04T01:54:53;8.00;1.00
8633;DHT22;4354;49.832;10.746;2024-02-04T01:57:20;8.00;1.00
8633;DHT22;4354;49.832;10.746;2024-02-04T01:59:48;8.00;1.00
8633;DHT22;4354;49.832;10.746;2024-02-04T02:02:18;8.00;1.00
8633;DHT22;4354;49.832;10.746;2024-02-04T02:04:46;8.00;1.00
8633;DHT22;4354;49.832;10.746;2024-02-04T02:07:13;8.00;1.00
8633;DHT22;4354;49.832;10.746;2024-02-04T02:09:43;7.90;1.00
8633;DHT22;4354;49.832;10.746;2024-02-04T02:12:18;7.90;1.00
8633;DHT22;4354;49.832;10.746;2024-02-04T02:14:49;7.90;3.20
8633;DHT22;4354;49.832;10.746;2024-02-04T02:17:27;7.90;1.00
8633;DHT22;4354;49.832;10.746;2024-02-04T02:20:12;7.90;10.90
8633;DHT22;4354;49.832;10.746;2024-02-04T02:25:58;7.80;15.90
8633;DHT22;4354;49.832;10.746;2024-02-04T02:28:25;7.90;20.50
8633;DHT22;4354;49.832;10.746;2024-02-04T02:30:52;7.80;24.40
8633;DHT22;4354;49.832;10.746;2024-02-04T02:33:19;7.80;31.30
8633;DHT22;4354;49.832;10.746;2024-02-04T02:35:48;7.80;31.30
8633;DHT22;4354;49.832;10.746;2024-02-04T02:38:32;7.80;27.20
8633;DHT22;4354;49.832;10.746;2024-02-04T02:41:04;7.80;37.40
8633;DHT22;4354;49.832;10.746;2024-02-04T02:43:34;7.70;34.90
8633;DHT22;4354;49.832;10.746;2024-02-04T02:46:01;7.80;28.00
8633;DHT22;4354;49.832;10.746;2024-02-04T02:48:29;7.70;31.90
8633;DHT22;4354;49.832;10.746;2024-02-04T02:50:56;7.80;37.50
8633;DHT22;4354;49.832;10.746;2024-02-04T02:53:23;7.80;23.00
8633;DHT22;4354;49.832;10.746;2024-02-04T02:55:49;7.80;30.40
8633;DHT22;4354;49.832;10.746;2024-02-04T02:58:16;7.80;36.40
8633;DHT22;4354;49.832;10.746;2024-02-04T03:00:43;7.80;41.50
8633;DHT22;4354;49.832;10.746;2024-02-04T03:03:12;7.80;43.40
8633;DHT22;4354;49.832;10.746;2024-02-04T03:05:38;7.70;54.50
8633;DHT22;4354;49.832;10.746;2024-02-04T03:08:05;7.70;55.80
8633;DHT22;4354;49.832;10.746;2024-02-04T03:10:32;7.70;61.80
8633;DHT22;4354;49.832;10.746;2024-02-04T03:12:59;7.70;60.40
8633;DHT22;4354;49.832;10.746;2024-02-04T03:15:27;7.70;55.40
8633;DHT22;4354;49.832;10.746;2024-02-04T03:17:54;7.70;53.70
8633;DHT22;4354;49.832;10.746;2024-02-04T03:20:20;7.70;55.80
8633;DHT22;4354;49.832;10.746;2024-02-04T03:22:49;7.70;57.90
8633;DHT22;4354;49.832;10.746;2024-02-04T03:25:15;7.70;56.60
8633;DHT22;4354;49.832;10.746;2024-02-04T03:27:42;7.70;58.60
8633;DHT22;4354;49.832;10.746;2024-02-04T03:30:09;7.70;55.20
8633;DHT22;4354;49.832;10.746;2024-02-04T03:32:37;7.70;57.50
8633;DHT22;4354;49.832;10.746;2024-02-04T03:35:04;7.60;59.40
8633;DHT22;4354;49.832;10.746;2024-02-04T03:37:31;7.70;57.30
8633;DHT22;4354;49.832;10.746;2024-02-04T03:39:58;7.80;52.60
8633;DHT22;4354;49.832;10.746;2024-02-04T03:42:25;7.70;55.50
8633;DHT22;4354;49.832;10.746;2024-02-04T03:44:52;7.70;51.70
8633;DHT22;4354;49.832;10.746;2024-02-04T03:47:18;7.70;55.90
8633;DHT22;4354;49.832;10.746;2024-02-04T03:49:45;7.70;55.50
8633;DHT22;4354;49.832;10.746;2024-02-04T03:52:12;7.70;60.00
8633;DHT22;4354;49.832;10.746;2024-02-04T03:54:39;7.70;58.20
8633;DHT22;4354;49.832;10.746;2024-02-04T03:57:05;7.60;61.00
8633;DHT22;4354;49.832;10.746;2024-02-04T03:59:32;7.60;61.60
8633;DHT22;4354;49.832;10.746;2024-02-04T04:01:59;7.60;59.00
8633;DHT22;4354;49.832;10.746;2024-02-04T04:04:25;7.70;64.70
8633;DHT22;4354;49.832;10.746;2024-02-04T04:06:53;7.70;55.00
8633;DHT22;4354;49.832;10.746;2024-02-04T04:09:20;7.70;48.80
8633;DHT22;4354;49.832;10.746;2024-02-04T04:11:47;7.70;36.00
8633;DHT22;4354;49.832;10.746;2024-02-04T04:14:13;7.70;41.70
8633;DHT22;4354;49.832;10.746;2024-02-04T04:16:40;7.60;47.00
8633;DHT22;4354;49.832;10.746;2024-02-04T04:19:07;7.60;55.50
8633;DHT22;4354;49.832;10.746;2024-02-04T04:21:34;7.60;54.10
8633;DHT22;4354;49.832;10.746;2024-02-04T04:24:01;7.60;57.60
8633;DHT22;4354;49.832;10.746;2024-02-04T04:26:28;7.60;54.60
8633;DHT22;4354;49.832;10.746;2024-02-04T04:28:55;7.50;55.10
8633;DHT22;4354;49.832;10.746;2024-02-04T04:31:21;7.60;49.40
8633;DHT22;4354;49.832;10.746;2024-02-04T04:33:48;7.60;42.70
8633;DHT22;4354;49.832;10.746;2024-02-04T04:36:15;7.60;37.00
8633;DHT22;4354;49.832;10.746;2024-02-04T04:38:42;7.50;48.50
8633;DHT22;4354;49.832;10.746;2024-02-04T04:41:09;7.50;58.70
8633;DHT22;4354;49.832;10.746;2024-02-04T04:43:38;7.50;69.20
8633;DHT22;4354;49.832;10.746;2024-02-04T04:46:05;7.50;76.30
8633;DHT22;4354;49.832;10.746;2024-02-04T04:48:32;7.40;83.90
8633;DHT22;4354;49.832;10.746;2024-02-04T04:50:59;7.40;92.60
8633;DHT22;4354;49.832;10.746;2024-02-04T04:53:26;7.40;90.70
8633;DHT22;4354;49.832;10.746;2024-02-04T04:55:52;7.40;90.70
8633;DHT22;4354;49.832;10.746;2024-02-04T04:58:19;7.40;92.40
8633;DHT22;4354;49.832;10.746;2024-02-04T05:00:46;7.40;93.60
8633;DHT22;4354;49.832;10.746;2024-02-04T05:03:13;7.40;94.70
8633;DHT22;4354;49.832;10.746;2024-02-04T05:05:39;7.30;97.70
8633;DHT22;4354;49.832;10.746;2024-02-04T05:08:06;7.30;98.70
8633;DHT22;4354;49.832;10.746;2024-02-04T05:10:33;7.30;99.80
8633;DHT22;4354;49.832;10.746;2024-02-04T05:13:00;7.30;97.50
8633;DHT22;4354;49.832;10.746;2024-02-04T05:15:26;7.30;94.30
8633;DHT22;4354;49.832;10.746;2024-02-04T05:17:53;7.40;95.60
8633;DHT22;4354;49.832;10.746;2024-02-04T05:20:21;7.40;93.50
8633;DHT22;4354;49.832;10.746;2024-02-04T05:22:48;7.30;93.70
8633;DHT22;4354;49.832;10.746;2024-02-04T05:25:14;7.30;95.70
8633;DHT22;4354;49.832;10.746;2024-02-04T05:27:41;7.20;98.50
8633;DHT22;4354;49.832;10.746;2024-02-04T05:30:08;7.20;99.20
8633;DHT22;4354;49.832;10.746;2024-02-04T05:32:35;7.20;99.90
8633;DHT22;4354;49.832;10.746;2024-02-04T05:35:02;7.20;99.90
8633;DHT22;4354;49.832;10.746;2024-02-04T05:37:29;7.20;99.90
8633;DHT22;4354;49.832;10.746;2024-02-04T05:39:56;7.10;99.90
8633;DHT22;4354;49.832;10.746;2024-02-04T05:42:23;7.10;99.90
8633;DHT22;4354;49.832;10.746;2024-02-04T05:44:50;7.10;99.90
8633;DHT22;4354;49.832;10.746;2024-02-04T05:47:16;7.10;99.90
8633;DHT22;4354;49.832;10.746;2024-02-04T05:49:44;7.10;99.90
8633;DHT22;4354;49.832;10.746;2024-02-04T05:52:12;7.10;99.90
8633;DHT22;4354;49.832;10.746;2024-02-04T05:54:38;7.00;99.90
8633;DHT22;4354;49.832;10.746;2024-02-04T05:57:06;7.10;99.90
8633;DHT22;4354;49.832;10.746;2024-02-04T05:59:34;7.10;99.90
8633;DHT22;4354;49.832;10.746;2024-02-04T06:02:00;7.00;99.90
8633;DHT22;4354;49.832;10.746;2024-02-04T06:04:27;7.00;99.90
8633;DHT22;4354;49.832;10.746;2024-02-04T06:06:54;7.10;99.90
8633;DHT22;4354;49.832;10.746;2024-02-04T06:09:21;7.00;99.90
8633;DHT22;4354;49.832;10.746;2024-02-04T06:11:47;7.10;99.90
8633;DHT22;4354;49.832;10.746;2024-02-04T06:14:14;7.10;99.90
8633;DHT22;4354;49.832;10.746;2024-02-04T06:16:41;7.10;99.90
8633;DHT22;4354;49.832;10.746;2024-02-04T06:19:08;7.10;99.90
8633;DHT22;4354;49.832;10.746;2024-02-04T06:21:36;7.10;99.90
8633;DHT22;4354;49.832;10.746;2024-02-04T06:24:03;7.10;99.90
8633;DHT22;4354;49.832;10.746;2024-02-04T06:26:30;7.10;99.90
8633;DHT22;4354;49.832;10.746;2024-02-04T06:28:56;7.00;99.90
8633;DHT22;4354;49.832;10.746;2024-02-04T06:31:23;7.10;99.90
8633;DHT22;4354;49.832;10.746;2024-02-04T06:33:50;7.00;99.90
8633;DHT22;4354;49.832;10.746;2024-02-04T06:36:18;7.00;99.90
8633;DHT22;4354;49.832;10.746;2024-02-04T06:38:44;7.00;99.90
8633;DHT22;4354;49.832;10.746;2024-02-04T06:41:11;7.00;99.90
8633;DHT22;4354;49.832;10.746;2024-02-04T06:43:38;7.10;99.90
8633;DHT22;4354;49.832;10.746;2024-02-04T06:46:05;7.10;99.90
8633;DHT22;4354;49.832;10.746;2024-02-04T06:48:32;7.10;99.90
8633;DHT22;4354;49.832;10.746;2024-02-04T06:50:59;7.10;99.90
8633;DHT22;4354;49.832;10.746;2024-02-04T06:53:26;7.10;99.90
8633;DHT22;4354;49.832;10.746;2024-02-04T06:55:52;7.10;99.90
8633;DHT22;4354;49.832;10.746;2024-02-04T06:58:19;7.10;99.90
8633;DHT22;4354;49.832;10.746;2024-02-04T07:00:46;7.10;99.90
8633;DHT22;4354;49.832;10.746;2024-02-04T07:03:13;7.10;99.90
8633;DHT22;4354;49.832;10.746;2024-02-04T07:05:40;7.10;99.90
8633;DHT22;4354;49.832;10.746;2024-02-04T07:08:09;7.10;99.90
8633;DHT22;4354;49.832;10.746;2024-02-04T07:10:36;7.10;99.90
8633;DHT22;4354;49.832;10.746;2024-02-04T07:13:03;7.10;99.90
8633;DHT22;4354;49.832;10.746;2024-02-04T07:15:30;7.10;99.90
8633;DHT22;4354;49.832;10.746;2024-02-04T07:17:56;7.10;99.90
8633;DHT22;4354;49.832;10.746;2024-02-04T07:20:23;7.10;99.90
8633;DHT22;4354;49.832;10.746;2024-02-04T07:22:50;7.10;99.90
8633;DHT22;4354;49.832;10.746;2024-02-04T07:25:17;7.10;99.90
8633;DHT22;4354;49.832;10.746;2024-02-04T07:27:44;7.20;99.90
8633;DHT22;4354;49.832;10.746;2024-02-04T07:30:11;7.10;99.90
8633;DHT22;4354;49.832;10.746;2024-02-04T07:32:37;7.10;99.90
8633;DHT22;4354;49.832;10.746;2024-02-04T07:35:05;7.20;99.90
8633;DHT22;4354;49.832;10.746;2024-02-04T07:37:33;7.20;99.90
8633;DHT22;4354;49.832;10.746;2024-02-04T07:40:00;7.20;99.90
8633;DHT22;4354;49.832;10.746;2024-02-04T07:42:30;7.20;99.90
8633;DHT22;4354;49.832;10.746;2024-02-04T07:44:57;7.20;99.90
8633;DHT22;4354;49.832;10.746;2024-02-04T07:47:23;7.30;99.90
8633;DHT22;4354;49.832;10.746;2024-02-04T07:49:50;7.30;97.50
8633;DHT22;4354;49.832;10.746;2024-02-04T07:52:17;7.30;94.50
8633;DHT22;4354;49.832;10.746;2024-02-04T07:54:44;7.30;94.80
8633;DHT22;4354;49.832;10.746;2024-02-04T07:57:12;7.30;97.20
8633;DHT22;4354;49.832;10.746;2024-02-04T07:59:39;7.30;95.20
8633;DHT22;4354;49.832;10.746;2024-02-04T08:02:05;7.30;92.70
8633;DHT22;4354;49.832;10.746;2024-02-04T08:04:33;7.40;91.30
8633;DHT22;4354;49.832;10.746;2024-02-04T08:07:02;7.40;75.80
8633;DHT22;4354;49.832;10.746;2024-02-04T08:09:29;7.40;80.50
8633;DHT22;4354;49.832;10.746;2024-02-04T08:11:55;7.40;78.70
8633;DHT22;4354;49.832;10.746;2024-02-04T08:14:25;7.40;82.30
8633;DHT22;4354;49.832;10.746;2024-02-04T08:16:52;7.40;83.50
8633;DHT22;4354;49.832;10.746;2024-02-04T08:19:18;7.40;83.60
8633;DHT22;4354;49.832;10.746;2024-02-04T08:21:45;7.40;75.70
8633;DHT22;4354;49.832;10.746;2024-02-04T08:24:12;7.40;62.90
8633;DHT22;4354;49.832;10.746;2024-02-04T08:26:39;7.40;62.00
8633;DHT22;4354;49.832;10.746;2024-02-04T08:29:05;7.50;66.90
8633;DHT22;4354;49.832;10.746;2024-02-04T08:31:32;7.40;73.00
8633;DHT22;4354;49.832;10.746;2024-02-04T08:34:00;7.40;83.30
8633;DHT22;4354;49.832;10.746;2024-02-04T08:36:27;7.40;90.50
8633;DHT22;4354;49.832;10.746;2024-02-04T08:38:54;7.40;86.20
8633;DHT22;4354;49.832;10.746;2024-02-04T08:41:21;7.50;83.70
8633;DHT22;4354;49.832;10.746;2024-02-04T08:43:47;7.50;78.30
8633;DHT22;4354;49.832;10.746;2024-02-04T08:46:14;7.50;74.50
8633;DHT22;4354;49.832;10.746;2024-02-04T08:48:41;7.50;85.80
8633;DHT22;4354;49.832;10.746;2024-02-04T08:51:12;7.50;79.10
8633;DHT22;4354;49.832;10.746;2024-02-04T08:53:39;7.50;72.20
8633;DHT22;4354;49.832;10.746;2024-02-04T08:56:06;7.60;67.40
8633;DHT22;4354;49.832;10.746;2024-02-04T08:58:34;7.60;70.60
8633;DHT22;4354;49.832;10.746;2024-02-04T09:01:01;7.50;75.80
8633;DHT22;4354;49.832;10.746;2024-02-04T09:03:27;7.60;80.60
8633;DHT22;4354;49.832;10.746;2024-02-04T09:05:55;7.60;77.20
8633;DHT22;4354;49.832;10.746;2024-02-04T09:08:21;7.70;75.00
8633;DHT22;4354;49.832;10.746;2024-02-04T09:10:48;7.60;68.00
8633;DHT22;4354;49.832;10.746;2024-02-04T09:13:15;7.80;70.10
8633;DHT22;4354;49.832;10.746;2024-02-04T09:15:42;7.70;55.30
8633;DHT22;4354;49.832;10.746;2024-02-04T09:18:08;7.70;58.60
8633;DHT22;4354;49.832;10.746;2024-02-04T09:20:35;7.80;47.00
8633;DHT22;4354;49.832;10.746;2024-02-04T09:23:02;7.80;49.70
8633;DHT22;4354;49.832;10.746;2024-02-04T09:25:30;7.80;47.80
8633;DHT22;4354;49.832;10.746;2024-02-04T09:27:57;7.90;25.50
8633;DHT22;4354;49.832;10.746;2024-02-04T09:30:24;8.00;23.40
8633;DHT22;4354;49.832;10.746;2024-02-04T09:32:50;8.00;18.20
8633;DHT22;4354;49.832;10.746;2024-02-04T09:35:17;8.20;5.20
8633;DHT22;4354;49.832;10.746;2024-02-04T09:37:44;8.30;1.00
8633;DHT22;4354;49.832;10.746;2024-02-04T09:40:12;8.40;1.00
8633;DHT22;4354;49.832;10.746;2024-02-04T09:42:39;8.40;1.00
8633;DHT22;4354;49.832;10.746;2024-02-04T09:45:07;8.40;1.00
8633;DHT22;4354;49.832;10.746;2024-02-04T09:47:34;8.50;1.00
8633;DHT22;4354;49.832;10.746;2024-02-04T09:50:01;8.40;1.00
8633;DHT22;4354;49.832;10.746;2024-02-04T09:52:29;8.40;1.00
8633;DHT22;4354;49.832;10.746;2024-02-04T09:55:00;8.50;1.00
8633;DHT22;4354;49.832;10.746;2024-02-04T09:57:31;8.40;1.00
8633;DHT22;4354;49.832;10.746;2024-02-04T09:59:59;8.40;1.00
8633;DHT22;4354;49.832;10.746;2024-02-04T10:02:26;8.40;1.00
8633;DHT22;4354;49.832;10.746;2024-02-04T10:04:53;8.50;1.00
8633;DHT22;4354;49.832;10.746;2024-02-04T10:07:20;8.60;1.00
8633;DHT22;4354;49.832;10.746;2024-02-04T10:09:47;8.70;1.00
8633;DHT22;4354;49.832;10.746;2024-02-04T10:12:14;8.70;1.00
8633;DHT22;4354;49.832;10.746;2024-02-04T10:14:42;8.60;1.00
8633;DHT22;4354;49.832;10.746;2024-02-04T10:17:09;8.60;1.00
8633;DHT22;4354;49.832;10.746;2024-02-04T10:19:36;8.60;1.00
8633;DHT22;4354;49.832;10.746;2024-02-04T10:22:03;8.60;1.00
8633;DHT22;4354;49.832;10.746;2024-02-04T10:24:30;8.60;1.00
8633;DHT22;4354;49.832;10.746;2024-02-04T10:26:58;8.60;1.00
8633;DHT22;4354;49.832;10.746;2024-02-04T10:29:25;8.60;1.00
8633;DHT22;4354;49.832;10.746;2024-02-04T10:31:55;8.70;1.00
8633;DHT22;4354;49.832;10.746;2024-02-04T10:34:23;8.60;1.00
8633;DHT22;4354;49.832;10.746;2024-02-04T10:36:52;8.60;1.00
8633;DHT22;4354;49.832;10.746;2024-02-04T10:39:19;8.60;1.00
8633;DHT22;4354;49.832;10.746;2024-02-04T10:41:51;8.60;1.00
8633;DHT22;4354;49.832;10.746;2024-02-04T10:44:24;8.70;1.00
8633;DHT22;4354;49.832;10.746;2024-02-04T10:46:53;8.70;1.00
8633;DHT22;4354;49.832;10.746;2024-02-04T10:49:21;8.70;1.00
8633;DHT22;4354;49.832;10.746;2024-02-04T10:51:51;8.80;1.00
8633;DHT22;4354;49.832;10.746;2024-02-04T10:54:22;8.90;1.00
8633;DHT22;4354;49.832;10.746;2024-02-04T10:56:56;8.90;1.00
8633;DHT22;4354;49.832;10.746;2024-02-04T10:59:27;8.80;99.90
8633;DHT22;4354;49.832;10.746;2024-02-04T11:01:56;8.90;1.00
8633;DHT22;4354;49.832;10.746;2024-02-04T11:04:23;8.90;1.00
8633;DHT22;4354;49.832;10.746;2024-02-04T11:06:53;8.80;1.00
8633;DHT22;4354;49.832;10.746;2024-02-04T11:09:21;8.80;1.00
8633;DHT22;4354;49.832;10.746;2024-02-04T11:11:48;8.80;1.00
8633;DHT22;4354;49.832;10.746;2024-02-04T11:14:17;8.80;1.00
8633;DHT22;4354;49.832;10.746;2024-02-04T11:25:31;8.70;1.00
8633;DHT22;4354;49.832;10.746;2024-02-04T11:28:04;8.70;1.00
8633;DHT22;4354;49.832;10.746;2024-02-04T11:30:34;8.70;1.00
8633;DHT22;4354;49.832;10.746;2024-02-04T11:33:03;8.70;1.00
8633;DHT22;4354;49.832;10.746;2024-02-04T11:35:34;8.70;1.00
8633;DHT22;4354;49.832;10.746;2024-02-04T11:38:05;8.70;1.00
8633;DHT22;4354;49.832;10.746;2024-02-04T11:40:36;8.60;1.00
8633;DHT22;4354;49.832;10.746;2024-02-04T11:43:09;8.70;1.00
8633;DHT22;4354;49.832;10.746;2024-02-04T11:45:41;8.60;1.00
8633;DHT22;4354;49.832;10.746;2024-02-04T11:48:09;8.60;1.00
8633;DHT22;4354;49.832;10.746;2024-02-04T11:50:38;8.60;1.00
8633;DHT22;4354;49.832;10.746;2024-02-04T11:53:10;8.60;1.00
8633;DHT22;4354;49.832;10.746;2024-02-04T11:55:39;8.60;1.00
8633;DHT22;4354;49.832;10.746;2024-02-04T11:58:11;8.60;1.00
8633;DHT22;4354;49.832;10.746;2024-02-04T12:00:42;8.60;1.00
8633;DHT22;4354;49.832;10.746;2024-02-04T12:03:12;8.60;1.00
8633;DHT22;4354;49.832;10.746;2024-02-04T12:05:39;8.60;1.00
8633;DHT22;4354;49.832;10.746;2024-02-04T12:08:07;8.60;1.00
8633;DHT22;4354;49.832;10.746;2024-02-04T12:10:35;8.70;1.00
8633;DHT22;4354;49.832;10.746;2024-02-04T12:13:03;8.70;1.00
8633;DHT22;4354;49.832;10.746;2024-02-04T12:15:30;8.70;1.00
8633;DHT22;4354;49.832;10.746;2024-02-04T12:18:10;8.60;1.00
8633;DHT22;4354;49.832;10.746;2024-02-04T12:20:38;8.60;1.00
8633;DHT22;4354;49.832;10.746;2024-02-04T12:23:05;8.60;1.00
8633;DHT22;4354;49.832;10.746;2024-02-04T12:25:33;8.50;1.00
8633;DHT22;4354;49.832;10.746;2024-02-04T12:28:01;8.50;1.00
8633;DHT22;4354;49.832;10.746;2024-02-04T12:30:32;8.50;1.00
8633;DHT22;4354;49.832;10.746;2024-02-04T12:33:00;8.50;1.00
8633;DHT22;4354;49.832;10.746;2024-02-04T12:35:28;8.50;1.00
8633;DHT22;4354;49.832;10.746;2024-02-04T12:37:56;8.60;1.00
8633;DHT22;4354;49.832;10.746;2024-02-04T12:40:25;8.60;1.00
8633;DHT22;4354;49.832;10.746;2024-02-04T12:42:53;8.50;1.00
8633;DHT22;4354;49.832;10.746;2024-02-04T12:45:21;8.50;1.00
8633;DHT22;4354;49.832;10.746;2024-02-04T12:47:50;8.40;1.00
8633;DHT22;4354;49.832;10.746;2024-02-04T12:50:17;8.40;1.00
8633;DHT22;4354;49.832;10.746;2024-02-04T12:52:49;8.40;1.00
8633;DHT22;4354;49.832;10.746;2024-02-04T12:55:35;8.40;1.00
8633;DHT22;4354;49.832;10.746;2024-02-04T12:58:12;8.30;1.00
8633;DHT22;4354;49.832;10.746;2024-02-04T13:00:41;8.30;1.00
8633;DHT22;4354;49.832;10.746;2024-02-04T13:03:08;8.20;1.00
8633;DHT22;4354;49.832;10.746;2024-02-04T13:05:36;8.20;1.00
8633;DHT22;4354;49.832;10.746;2024-02-04T13:08:04;8.20;1.00
8633;DHT22;4354;49.832;10.746;2024-02-04T13:10:36;8.20;8.30
8633;DHT22;4354;49.832;10.746;2024-02-04T13:13:04;8.10;12.80
8633;DHT22;4354;49.832;10.746;2024-02-04T13:15:39;8.00;29.10
8633;DHT22;4354;49.832;10.746;2024-02-04T13:18:06;8.00;28.80
8633;DHT22;4354;49.832;10.746;2024-02-04T13:20:35;8.00;14.90
8633;DHT22;4354;49.832;10.746;2024-02-04T13:23:02;8.00;18.30
8633;DHT22;4354;49.832;10.746;2024-02-04T13:25:31;8.00;21.60
8633;DHT22;4354;49.832;10.746;2024-02-04T13:27:59;8.00;19.50
8633;DHT22;4354;49.832;10.746;2024-02-04T13:30:26;8.00;21.00
8633;DHT22;4354;49.832;10.746;2024-02-04T13:32:52;8.10;12.20
8633;DHT22;4354;49.832;10.746;2024-02-04T13:35:19;8.10;12.90
8633;DHT22;4354;49.832;10.746;2024-02-04T13:37:47;8.10;25.40
8633;DHT22;4354;49.832;10.746;2024-02-04T13:40:20;8.10;29.50
8633;DHT22;4354;49.832;10.746;2024-02-04T13:42:48;8.10;42.80
8633;DHT22;4354;49.832;10.746;2024-02-04T13:45:15;8.00;57.70
8633;DHT22;4354;49.832;10.746;2024-02-04T13:47:42;8.00;69.30
8633;DHT22;4354;49.832;10.746;2024-02-04T13:50:10;7.90;78.20
8633;DHT22;4354;49.832;10.746;2024-02-04T13:52:38;8.00;86.50
8633;DHT22;4354;49.832;10.746;2024-02-04T13:55:06;8.00;87.90
8633;DHT22;4354;49.832;10.746;2024-02-04T13:57:34;7.90;94.30
8633;DHT22;4354;49.832;10.746;2024-02-04T14:00:01;8.00;94.80
8633;DHT22;4354;49.832;10.746;2024-02-04T14:02:30;8.00;94.20
8633;DHT22;4354;49.832;10.746;2024-02-04T14:04:58;8.00;91.60
8633;DHT22;4354;49.832;10.746;2024-02-04T14:07:25;8.00;83.10
8633;DHT22;4354;49.832;10.746;2024-02-04T14:09:52;8.00;92.00
8633;DHT22;4354;49.832;10.746;2024-02-04T14:12:19;8.00;97.00
8633;DHT22;4354;49.832;10.746;2024-02-04T14:14:46;8.10;99.90
8633;DHT22;4354;49.832;10.746;2024-02-04T14:17:12;8.10;99.90
8633;DHT22;4354;49.832;10.746;2024-02-04T14:19:40;8.10;99.90
8633;DHT22;4354;49.832;10.746;2024-02-04T14:22:07;8.00;99.90
8633;DHT22;4354;49.832;10.746;2024-02-04T14:24:34;8.00;99.90
8633;DHT22;4354;49.832;10.746;2024-02-04T14:27:01;8.00;99.90
8633;DHT22;4354;49.832;10.746;2024-02-04T14:29:27;8.00;99.90
8633;DHT22;4354;49.832;10.746;2024-02-04T14:31:54;8.00;99.90
8633;DHT22;4354;49.832;10.746;2024-02-04T14:34:22;8.10;99.90
8633;DHT22;4354;49.832;10.746;2024-02-04T14:36:49;8.10;98.70
8633;DHT22;4354;49.832;10.746;2024-02-04T14:39:16;8.10;98.80
8633;DHT22;4354;49.832;10.746;2024-02-04T14:41:43;8.10;99.40
8633;DHT22;4354;49.832;10.746;2024-02-04T14:44:10;8.10;99.40
8633;DHT22;4354;49.832;10.746;2024-02-04T14:46:38;8.00;98.00
8633;DHT22;4354;49.832;10.746;2024-02-04T14:49:05;8.00;99.90
8633;DHT22;4354;49.832;10.746;2024-02-04T14:51:32;8.10;99.90
8633;DHT22;4354;49.832;10.746;2024-02-04T14:54:00;8.10;96.70
8633;DHT22;4354;49.832;10.746;2024-02-04T14:56:27;8.10;98.00
8633;DHT22;4354;49.832;10.746;2024-02-04T14:58:53;8.20;94.30
8633;DHT22;4354;49.832;10.746;2024-02-04T15:01:21;8.10;90.70
8633;DHT22;4354;49.832;10.746;2024-02-04T15:03:48;8.10;93.20
8633;DHT22;4354;49.832;10.746;2024-02-04T15:06:15;8.20;92.50
8633;DHT22;4354;49.832;10.746;2024-02-04T15:08:42;8.20;91.40
8633;DHT22;4354;49.832;10.746;2024-02-04T15:11:10;8.20;87.30
8633;DHT22;4354;49.832;10.746;2024-02-04T15:13:37;8.20;75.20
8633;DHT22;4354;49.832;10.746;2024-02-04T15:16:04;8.20;74.80
8633;DHT22;4354;49.832;10.746;2024-02-04T15:18:31;8.20;80.90
8633;DHT22;4354;49.832;10.746;2024-02-04T15:20:59;8.20;80.20
8633;DHT22;4354;49.832;10.746;2024-02-04T15:23:25;8.20;80.20
8633;DHT22;4354;49.832;10.746;2024-02-04T15:25:53;8.20;86.20
8633;DHT22;4354;49.832;10.746;2024-02-04T15:28:20;8.10;85.80
8633;DHT22;4354;49.832;10.746;2024-02-04T15:30:47;8.20;86.40
8633;DHT22;4354;49.832;10.746;2024-02-04T15:33:14;8.10;86.10
8633;DHT22;4354;49.832;10.746;2024-02-04T15:35:41;8.20;91.10
8633;DHT22;4354;49.832;10.746;2024-02-04T15:38:10;8.20;83.00
8633;DHT22;4354;49.832;10.746;2024-02-04T15:40:38;8.20;83.80
8633;DHT22;4354;49.832;10.746;2024-02-04T15:43:05;8.10;82.40
8633;DHT22;4354;49.832;10.746;2024-02-04T15:45:35;8.20;81.50
8633;DHT22;4354;49.832;10.746;2024-02-04T15:48:03;8.20;75.10
8633;DHT22;4354;49.832;10.746;2024-02-04T15:50:31;8.20;78.10
8633;DHT22;4354;49.832;10.746;2024-02-04T15:53:03;8.20;76.20
8633;DHT22;4354;49.832;10.746;2024-02-04T15:55:30;8.20;76.60
8633;DHT22;4354;49.832;10.746;2024-02-04T15:57:59;8.20;78.70
8633;DHT22;4354;49.832;10.746;2024-02-04T16:00:27;8.20;81.60
8633;DHT22;4354;49.832;10.746;2024-02-04T16:02:55;8.20;82.50
8633;DHT22;4354;49.832;10.746;2024-02-04T16:05:22;8.20;77.90
8633;DHT22;4354;49.832;10.746;2024-02-04T16:07:50;8.20;72.50
8633;DHT22;4354;49.832;10.746;2024-02-04T16:10:18;8.20;63.40
8633;DHT22;4354;49.832;10.746;2024-02-04T16:12:56;8.20;72.60
8633;DHT22;4354;49.832;10.746;2024-02-04T16:15:25;8.20;70.20
8633;DHT22;4354;49.832;10.746;2024-02-04T16:17:53;8.20;64.30
8633;DHT22;4354;49.832;10.746;2024-02-04T16:20:22;8.20;64.30
8633;DHT22;4354;49.832;10.746;2024-02-04T16:22:49;8.30;62.70